• Join FlightAware (Why Join?)
  • Login
  • US Flag 
03:50AM EDT


 

Airport Tracker/Info


-or-


 

Live Flight TrackerFlight Track Log ✈ FRG2070 ✈ 08-Oct-2013 ✈ KDPA - KRST

Flight Track Log - Related Links

Times and Time Zones

All times are in EDT time to prevent confusion due to time zone crossing. See the FRG2070 flight status page for this flight to view local times or setup timezone preferences in your user account.

Time Position Orientation Groundspeed Altitude Reporting Facility
EDT Latitude Longitude Course Direction KTS MPH feet Rate Location/Type
01:55AM 41.8833 -88.2833 228° Southwest 85 98 1,800  Level Chicago TRACON
01:56AM 41.8667 -88.3167 236° Southwest 92 106 2,300 540 Climbing Chicago TRACON
01:57AM 41.8667 -88.3500 270° West 100 115 2,900 540 Climbing Chicago TRACON
01:58AM 41.8667 -88.3833 270° West 92 106 3,400 420 Climbing Chicago TRACON
01:59AM 41.8814 -88.4106 306° West 94 108 3,800 300 Climbing Chicago Center
02:00AM 41.8881 -88.4436 285° West 93 107 4,100 120 Climbing Chicago Center
02:01AM 41.8967 -88.4833 286° West 106 122 4,100  Level Chicago Center
02:02AM 41.9058 -88.5247 287° West 114 131 4,100 -60 Level Chicago Center
02:03AM 41.9225 -88.5583 304° West 111 128 4,000 -60 Descending Chicago Center
02:04AM 41.9431 -88.5919 309° West 115 132 4,000  Level Chicago Center
02:05AM 41.9608 -88.6253 306° West 112 129 4,100 60 Climbing Chicago Center
02:06AM 41.9808 -88.6583 309° West 113 130 4,200  Climbing Chicago Center
02:07AM 42.0006 -88.6917 309° West 115 132 4,100 -60 Descending Chicago Center
02:08AM 42.0214 -88.7242 311° West 115 132 4,100  Level Chicago Center
02:09AM 42.0417 -88.7572 310° West 115 132 4,100  Level Chicago Center
02:10AM 42.0619 -88.7906 309° West 116 133 4,100  Level Chicago Center
02:11AM 42.0825 -88.8225 311° West 114 131 4,100  Level Chicago Center
02:12AM 42.1039 -88.8592 308° West 116 133 4,100  Level Chicago Center
02:13AM 42.1206 -88.8964 301° West 116 133 4,100  Level Chicago Center
02:14AM 42.1369 -88.9303 303° West 112 129 4,100  Level Chicago Center
02:15AM 42.1550 -88.9672 303° West 117 135 4,100  Level Chicago Center
02:16AM 42.1731 -89.0025 305° West 115 132 4,100  Level Chicago Center
02:17AM 42.1903 -89.0383 303° West 114 131 4,200  Climbing Chicago Center
02:18AM 42.2108 -89.0719 310° West 115 132 4,100 -60 Descending Chicago Center
02:19AM 42.2306 -89.1047 309° West 114 131 4,100  Level Chicago Center
02:20AM 42.2475 -89.1414 302° West 115 132 4,100  Level Chicago Center
02:21AM 42.2642 -89.1783 301° West 115 132 4,100  Level Chicago Center
02:22AM 42.2833 -89.2133 307° West 116 133 4,100  Level Chicago Center
02:23AM 42.3006 -89.2494 303° West 115 132 4,100  Level Chicago Center
02:24AM 42.3164 -89.2875 299° West 116 133 4,100  Level Chicago Center
02:25AM 42.3356 -89.3217 307° West 115 132 4,100  Level Chicago Center
02:26AM 42.3553 -89.3578 306° West 118 136 4,100  Level Chicago Center
02:27AM 42.3736 -89.3936 305° West 117 135 4,100  Level Chicago Center
02:29AM 42.4048 -89.4668 300° West  Level FlightAware Approximate
02:31AM 42.4461 -89.5411 300° West 120 138 4,100  Level Chicago Center
02:32AM 42.4656 -89.5775 306° West 120 138 4,100  Level Chicago Center
02:33AM 42.4844 -89.6133 306° West 119 137 4,100  Level Chicago Center
02:34AM 42.5019 -89.6522 301° West 119 137 4,100  Level Chicago Center
02:35AM 42.5183 -89.6817 307° West 118 136 4,100  Level Chicago Center
02:36AM 42.5191 -89.7369 300° West  Level FlightAware Approximate
02:36AM 42.5439 -89.7228 310° West 119 137 4,100  Level Chicago Center
02:37AM 42.5633 -89.7589 306° West 120 138 4,100  Level Chicago Center
02:38AM 42.5825 -89.7947 306° West 119 137 4,100  Level Chicago Center
02:39AM 42.6028 -89.8289 309° West 118 136 4,100  Level Chicago Center
02:40AM 42.6222 -89.8650 306° West 119 137 4,100  Level Chicago Center
02:42AM 42.6628 -89.9353 308° West 118 136 4,100  Level Chicago Center
02:43AM 42.6839 -89.9697 310° West 119 137 4,100  Level Chicago Center
02:44AM 42.6997 -90.0064 300° West 116 133 4,100  Level Chicago Center
02:45AM 42.7169 -90.0425 303° West 115 132 4,100  Level Chicago Center
02:46AM 42.7364 -90.0750 309° West 113 130 4,100  Level Chicago Center
02:47AM 42.7525 -90.1114 301° West 113 130 4,100  Level Chicago Center
02:48AM 42.7689 -90.1517 299° West 115 132 4,100  Level Chicago Center
02:49AM 42.7853 -90.1844 304° West 113 130 4,100  Level Chicago Center
02:50AM 42.8028 -90.2208 303° West 115 132 4,100  Level Chicago Center
02:51AM 42.8183 -90.2592 299° West 117 135 4,100  Level Chicago Center
02:52AM 42.8378 -90.2925 309° West 115 132 4,100  Level Chicago Center
02:53AM 42.8589 -90.3258 311° West 115 132 4,100 -60 Level Chicago Center
02:54AM 42.8808 -90.3581 313° West 116 133 4,000  Descending Chicago Center
02:55AM 42.9003 -90.3942 306° West 119 137 4,100  Climbing Chicago Center
02:56AM 42.9217 -90.4364 305° West 116 133 4,100  Level Chicago Center
02:57AM 42.9406 -90.4722 306° West 116 133 4,100  Level Chicago Center
02:58AM 42.9606 -90.5069 308° West 117 135 4,100  Level Chicago Center
02:59AM 42.9769 -90.5442 301° West 117 135 4,100  Level Chicago Center
03:00AM 42.9936 -90.5806 302° West 115 132 4,100  Level Chicago Center
03:01AM 43.0131 -90.6147 308° West 114 131 4,100 -60 Level Chicago Center
03:02AM 43.0319 -90.6503 306° West 116 133 4,000 -60 Descending Chicago Center
03:03AM 43.0517 -90.6864 307° West 118 136 4,000  Level Chicago Center
03:04AM 43.0733 -90.7197 312° West 118 136 4,000  Level Chicago Center
03:05AM 43.0917 -90.7564 304° West 119 137 4,100  Climbing Chicago Center
03:06AM 43.1058 -90.7967 296° West 119 137 4,100  Level Chicago Center
03:07AM 43.1231 -90.8344 302° West 118 136 4,100  Level Chicago Center
03:08AM 43.1414 -90.8725 303° West 119 137 4,100  Level Chicago Center
03:09AM 43.1606 -90.9100 305° West 120 138 4,100  Level Chicago Center
03:10AM 43.1792 -90.9475 304° West 120 138 4,100  Level Chicago Center
03:11AM 43.1975 -90.9864 303° West 121 139 4,100  Level Chicago Center
03:12AM 43.2164 -91.0233 305° West 121 139 4,100  Level Chicago Center
03:13AM 43.2322 -91.0642 298° West 121 139 4,100  Level Chicago Center
03:14AM 43.2506 -91.1117 298° West 121 139 4,100  Level Chicago Center
03:15AM 43.2664 -91.1506 299° West 119 137 4,100  Level Chicago Center
03:16AM 43.2906 -91.2147 297° West 117 135 4,100  Level Minneapolis Center
03:17AM 43.3094 -91.2525 305° West 124 143 4,100  Level Minneapolis Center
03:18AM 43.3253 -91.2936 298° West 118 136 4,100  Level Minneapolis Center
03:19AM 43.3403 -91.3256 303° West 121 139 4,100  Level Minneapolis Center
03:20AM 43.3600 -91.3744 299° West 123 142 4,100  Level Minneapolis Center
03:21AM 43.3772 -91.4097 304° West 118 136 4,100  Level Minneapolis Center
03:22AM 43.3969 -91.4481 305° West 121 139 4,100  Level Minneapolis Center
03:23AM 43.4128 -91.4892 298° West 123 142 4,100  Level Minneapolis Center
03:25AM 43.4294 -91.5278 301° West 121 139 4,100  Level Minneapolis Center
03:26AM 43.4458 -91.5681 299° West 121 139 4,100 -60 Level Minneapolis Center
03:27AM 43.4669 -91.6058 308° West 123 142 4,000 -60 Descending Minneapolis Center
03:28AM 43.4917 -91.6397 315° West 125 144 4,000  Level Minneapolis Center
03:29AM 43.5100 -91.6769 304° West 123 142 4,000  Level Minneapolis Center
03:30AM 43.5275 -91.7164 301° West 117 135 4,100  Climbing Minneapolis Center
03:31AM 43.5450 -91.7575 300° West 117 135 4,100  Level Minneapolis Center
03:32AM 43.5628 -91.7961 302° West 120 138 4,100  Level Minneapolis Center
03:33AM 43.5797 -91.8356 301° West 121 139 4,100  Level Minneapolis Center
03:34AM 43.5953 -91.8761 298° West 120 138 4,100  Level Minneapolis Center
03:35AM 43.6150 -91.9136 306° West 122 140 4,100  Level Minneapolis Center
03:36AM 43.6364 -91.9506 309° West 125 144 4,100  Level Minneapolis Center
03:37AM 43.6594 -91.9900 309° West 124 143 4,100  Level Minneapolis Center
03:38AM 43.6783 -92.0272 305° West 121 139 4,100  Level Minneapolis Center
03:39AM 43.6969 -92.0664 303° West 122 140 4,100  Level Minneapolis Center
03:40AM 43.7161 -92.1047 305° West 122 140 4,100  Level Minneapolis Center